Time;durP1;ratioP1;P1;durP2;ratioP2;P2;SDS_P1;SDS_P2;PMS_P1;PMS_P2;Temp;Humidity;BMP_temperature;BMP_pressure;BME280_temperature;BME280_humidity;BME280_pressure;Samples;Min_cycle;Max_cycle;Signal;HPM_P1;HPM_P2
2022/07/25 00:01:52;;;;;;;0.00;0.00;;;25.60;46.40;;;;;;5095235;28;20476;-73
2022/07/25 00:04:18;;;;;;;0.00;0.00;;;25.30;46.50;;;;;;5095084;28;20495;-73
2022/07/25 00:06:44;;;;;;;0.00;0.00;;;25.50;46.40;;;;;;5091765;28;20093;-73
2022/07/25 00:09:10;;;;;;;0.00;0.00;;;25.50;46.40;;;;;;5072280;28;20402;-73
2022/07/25 00:11:36;;;;;;;0.15;0.15;;;25.70;47.00;;;;;;5091989;28;20020;-73
2022/07/25 00:14:03;;;;;;;0.20;0.20;;;25.60;46.20;;;;;;5092013;28;20016;-73
2022/07/25 00:16:29;;;;;;;0.00;0.00;;;25.40;46.50;;;;;;5078960;28;20035;-73
2022/07/25 00:18:55;;;;;;;0.00;0.00;;;25.50;47.20;;;;;;5095053;28;20016;-73
2022/07/25 00:21:21;;;;;;;0.00;0.00;;;25.60;47.80;;;;;;5094930;28;20024;-73
2022/07/25 00:23:47;;;;;;;0.00;0.00;;;25.80;47.40;;;;;;5089824;28;20032;-73
2022/07/25 00:26:13;;;;;;;0.00;0.00;;;25.90;46.60;;;;;;5095064;28;20095;-73
2022/07/25 00:28:40;;;;;;;0.00;0.00;;;26.10;46.80;;;;;;5090446;28;20024;-73
2022/07/25 00:31:06;;;;;;;0.00;0.00;;;26.30;46.80;;;;;;5092981;28;20085;-73
2022/07/25 00:33:32;;;;;;;0.00;0.00;;;26.50;45.70;;;;;;5085045;28;20037;-73
2022/07/25 00:35:58;;;;;;;0.00;0.00;;;26.40;46.90;;;;;;5081880;28;20013;-72
2022/07/25 00:38:27;;;;;;;0.00;0.00;;;26.20;47.40;;;;;;5080712;28;20085;-73
2022/07/25 00:41:01;;;;;;;0.00;0.00;;;26.40;47.10;;;;;;5072346;28;20111;-73
2022/07/25 00:43:27;;;;;;;0.43;0.43;;;26.50;47.20;;;;;;5093280;28;20035;-73
2022/07/25 00:45:53;;;;;;;0.00;0.00;;;26.60;47.10;;;;;;5094033;28;20064;-72
2022/07/25 00:48:19;;;;;;;0.00;0.00;;;26.80;46.80;;;;;;5115541;28;20028;-73
2022/07/25 00:50:45;;;;;;;0.00;0.00;;;26.80;45.70;;;;;;5115013;28;20035;-73
2022/07/25 00:53:11;;;;;;;0.00;0.00;;;27.00;44.50;;;;;;5114724;28;20096;-73
2022/07/25 00:55:37;;;;;;;0.00;0.00;;;27.20;45.10;;;;;;5114760;28;20015;-73
2022/07/25 00:58:03;;;;;;;0.00;0.00;;;27.20;45.30;;;;;;5108716;28;20054;-72
2022/07/25 01:00:29;;;;;;;0.00;0.00;;;26.70;48.00;;;;;;5094059;28;20020;-73
2022/07/25 01:02:55;;;;;;;2.47;2.38;;;26.60;48.20;;;;;;5092617;28;20016;-73
2022/07/25 01:05:22;;;;;;;0.93;0.88;;;27.00;47.40;;;;;;5094342;28;20032;-73
2022/07/25 01:07:48;;;;;;;0.00;0.00;;;27.50;46.50;;;;;;5076150;28;20024;-73
2022/07/25 01:10:14;;;;;;;0.00;0.00;;;27.70;47.00;;;;;;5094005;28;20070;-73
2022/07/25 01:12:58;;;;;;;0.00;0.00;;;28.10;46.90;;;;;;5094020;28;20028;-72
2022/07/25 01:15:24;;;;;;;0.00;0.00;;;28.70;46.00;;;;;;5075161;28;20467;-73
2022/07/25 01:17:54;;;;;;;0.00;0.00;;;29.20;45.00;;;;;;5093610;28;20059;-73
2022/07/25 01:20:26;;;;;;;0.00;0.00;;;29.90;43.70;;;;;;5093846;28;20016;-72
2022/07/25 01:22:52;;;;;;;0.00;0.00;;;30.50;42.10;;;;;;5093952;28;20107;-72
2022/07/25 01:25:18;;;;;;;0.20;0.20;;;30.90;40.20;;;;;;5086717;28;20111;-72
2022/07/25 01:27:45;;;;;;;0.15;0.15;;;31.10;39.00;;;;;;5100506;28;20447;-74
2022/07/25 01:30:14;;;;;;;0.00;0.00;;;31.30;39.70;;;;;;5079981;28;20020;-74
2022/07/25 01:32:41;;;;;;;0.00;0.00;;;31.50;39.60;;;;;;5093444;28;20020;-72
2022/07/25 01:35:08;;;;;;;0.00;0.00;;;31.60;39.80;;;;;;5093586;28;20406;-72
2022/07/25 01:37:34;;;;;;;0.00;0.00;;;31.30;40.00;;;;;;5093537;28;20055;-72
2022/07/25 01:40:01;;;;;;;0.00;0.00;;;30.60;41.10;;;;;;5093375;28;20028;-72
2022/07/25 01:42:27;;;;;;;0.00;0.00;;;30.00;41.50;;;;;;5093518;28;20024;-72
2022/07/25 01:44:53;;;;;;;0.00;0.00;;;30.20;42.60;;;;;;5093283;28;20020;-73
2022/07/25 01:47:19;;;;;;;0.00;0.00;;;30.50;41.30;;;;;;5093160;28;20142;-73
2022/07/25 01:49:45;;;;;;;0.00;0.00;;;31.00;40.00;;;;;;5075054;28;20085;-74
2022/07/25 01:52:12;;;;;;;0.03;0.03;;;31.40;40.10;;;;;;5097407;28;20032;-76
2022/07/25 01:54:39;;;;;;;0.00;0.00;;;31.90;40.50;;;;;;5115208;28;20020;-77
2022/07/25 01:57:06;;;;;;;0.05;0.05;;;31.90;37.40;;;;;;5097514;28;20491;-75
2022/07/25 01:59:32;;;;;;;0.00;0.00;;;31.90;40.70;;;;;;5075754;28;20518;-76
2022/07/25 02:01:58;;;;;;;0.00;0.00;;;31.90;39.80;;;;;;5093210;28;20020;-76
2022/07/25 02:04:24;;;;;;;0.00;0.00;;;32.60;38.70;;;;;;5074967;28;20115;-77
2022/07/25 02:06:53;;;;;;;0.00;0.00;;;33.00;36.00;;;;;;5088776;28;20043;-78
2022/07/25 02:09:18;;;;;;;0.32;0.32;;;33.60;34.90;;;;;;5081394;28;20038;-77
2022/07/25 02:11:44;;;;;;;0.00;0.00;;;34.10;32.60;;;;;;5073735;28;20107;-78
2022/07/25 02:14:10;;;;;;;0.00;0.00;;;34.70;30.90;;;;;;5086835;28;20518;-78
2022/07/25 02:16:37;;;;;;;0.00;0.00;;;35.30;31.50;;;;;;5082535;28;20024;-80
2022/07/25 02:19:03;;;;;;;0.00;0.00;;;36.10;30.60;;;;;;5080444;28;20047;-77
2022/07/25 02:21:29;;;;;;;0.38;0.38;;;36.30;30.70;;;;;;5074676;28;20099;-76
2022/07/25 02:23:55;;;;;;;0.00;0.00;;;36.80;30.00;;;;;;5082290;28;20429;-76
2022/07/25 02:26:21;;;;;;;0.00;0.00;;;37.10;28.80;;;;;;5063717;28;20080;-75
2022/07/25 02:28:49;;;;;;;0.00;0.00;;;37.90;28.00;;;;;;5086525;28;20077;-76
2022/07/25 02:31:15;;;;;;;0.00;0.00;;;38.50;27.10;;;;;;5078854;28;20085;-74
2022/07/25 02:33:41;;;;;;;0.00;0.00;;;38.20;27.20;;;;;;5085441;28;20532;-74
2022/07/25 02:36:08;;;;;;;0.00;0.00;;;38.30;27.10;;;;;;5072106;28;20189;-75
2022/07/25 02:38:35;;;;;;;0.00;0.00;;;38.30;27.50;;;;;;5092036;28;20017;-75
2022/07/25 02:41:03;;;;;;;0.00;0.00;;;38.10;27.00;;;;;;5083565;28;20581;-74
2022/07/25 02:43:30;;;;;;;0.00;0.00;;;38.30;27.20;;;;;;5084219;28;20035;-77
2022/07/25 02:45:56;;;;;;;0.00;0.00;;;38.50;27.30;;;;;;5081404;28;20042;-76
2022/07/25 02:48:22;;;;;;;0.00;0.00;;;39.20;26.90;;;;;;5079284;28;20111;-77
2022/07/25 02:50:48;;;;;;;0.10;0.10;;;39.50;26.40;;;;;;5075525;28;20020;-77
2022/07/25 02:53:14;;;;;;;0.00;0.00;;;39.50;25.90;;;;;;5077888;28;20035;-77
2022/07/25 02:55:40;;;;;;;0.00;0.00;;;38.30;26.90;;;;;;5084592;28;20047;-76
2022/07/25 02:58:06;;;;;;;0.00;0.00;;;37.90;28.10;;;;;;5093210;28;20037;-75
2022/07/25 03:00:33;;;;;;;11.07;10.63;;;37.50;28.60;;;;;;5077867;28;20054;-75
2022/07/25 03:02:59;;;;;;;0.00;0.00;;;37.10;29.50;;;;;;5096171;28;20026;-75
2022/07/25 03:05:25;;;;;;;0.00;0.00;;;36.70;28.50;;;;;;5089457;28;20112;-75
2022/07/25 03:07:51;;;;;;;0.00;0.00;;;36.10;29.90;;;;;;5085445;28;20073;-74
2022/07/25 03:10:17;;;;;;;0.00;0.00;;;35.80;30.30;;;;;;5089199;28;20040;-75
2022/07/25 03:12:44;;;;;;;0.00;0.00;;;35.60;30.20;;;;;;5087506;28;20039;-77
2022/07/25 03:15:11;;;;;;;0.00;0.00;;;35.70;30.00;;;;;;5084823;28;20115;-75
2022/07/25 03:17:37;;;;;;;0.00;0.00;;;35.90;29.80;;;;;;5084463;28;20063;-74
2022/07/25 03:20:05;;;;;;;0.00;0.00;;;36.20;29.00;;;;;;5084180;28;20103;-76
2022/07/25 03:22:31;;;;;;;0.00;0.00;;;36.60;28.90;;;;;;5077820;28;20237;-76
2022/07/25 03:24:58;;;;;;;0.00;0.00;;;37.10;28.70;;;;;;5073033;28;20099;-76
2022/07/25 03:27:24;;;;;;;0.20;0.20;;;36.50;28.40;;;;;;5086965;28;20054;-73
2022/07/25 03:29:50;;;;;;;0.80;0.80;;;36.70;28.30;;;;;;5071829;28;20036;-74
2022/07/25 03:32:16;;;;;;;0.00;0.00;;;37.10;28.30;;;;;;5081589;28;20021;-74
2022/07/25 03:34:42;;;;;;;0.00;0.00;;;37.50;27.90;;;;;;5089785;28;20027;-76
2022/07/25 03:37:08;;;;;;;0.00;0.00;;;37.30;28.40;;;;;;5092115;28;20028;-74
2022/07/25 03:39:34;;;;;;;0.00;0.00;;;37.50;27.70;;;;;;5071948;28;20104;-75
2022/07/25 03:42:00;;;;;;;0.00;0.00;;;38.10;27.80;;;;;;5059743;28;20492;-77
2022/07/25 03:44:27;;;;;;;0.15;0.15;;;38.50;27.40;;;;;;5076986;28;20040;-76
2022/07/25 03:46:53;;;;;;;0.00;0.00;;;38.50;27.40;;;;;;5091359;28;20035;-77
2022/07/25 03:49:19;;;;;;;0.00;0.00;;;38.30;26.90;;;;;;5096823;28;20036;-76
2022/07/25 03:51:45;;;;;;;0.00;0.00;;;37.60;28.10;;;;;;5094505;28;20023;-75
2022/07/25 03:54:14;;;;;;;0.00;0.00;;;36.60;28.70;;;;;;5085046;28;20028;-77
2022/07/25 03:56:47;;;;;;;0.00;0.00;;;36.40;28.50;;;;;;5082296;28;20036;-78
2022/07/25 03:59:16;;;;;;;0.93;0.25;;;36.20;28.90;;;;;;5067408;28;20020;-78
2022/07/25 04:01:44;;;;;;;0.52;0.22;;;35.30;29.90;;;;;;5092177;28;20030;-76
2022/07/25 04:04:10;;;;;;;0.10;0.10;;;34.40;31.20;;;;;;5079893;28;20129;-78
2022/07/25 04:06:37;;;;;;;0.00;0.00;;;33.90;30.60;;;;;;5100090;28;20035;-78
2022/07/25 04:09:04;;;;;;;0.00;0.00;;;33.80;31.00;;;;;;5084609;28;20052;-77
2022/07/25 04:11:30;;;;;;;1.55;1.50;;;33.60;32.60;;;;;;5071792;28;20502;-78
2022/07/25 04:13:56;;;;;;;0.00;0.00;;;33.70;32.90;;;;;;5082177;28;20027;-78
2022/07/25 04:16:23;;;;;;;0.00;0.00;;;33.80;32.40;;;;;;5087173;28;20028;-76
2022/07/25 04:18:50;;;;;;;0.00;0.00;;;33.90;31.80;;;;;;5088770;28;20032;-76
2022/07/25 04:21:16;;;;;;;0.00;0.00;;;34.00;30.00;;;;;;5094730;28;20028;-79
2022/07/25 04:23:42;;;;;;;0.00;0.00;;;34.20;30.30;;;;;;5094669;28;20024;-82
2022/07/25 04:26:08;;;;;;;0.00;0.00;;;34.40;30.10;;;;;;5098449;28;20023;-79
2022/07/25 04:28:34;;;;;;;0.00;0.00;;;34.20;30.10;;;;;;5097321;28;20064;-78
2022/07/25 04:31:01;;;;;;;0.00;0.00;;;34.20;30.70;;;;;;5093354;28;20095;-78
2022/07/25 04:33:27;;;;;;;0.10;0.10;;;33.70;31.50;;;;;;5082809;28;20036;-77
2022/07/25 04:35:53;;;;;;;0.20;0.05;;;33.30;30.90;;;;;;5079196;28;20461;-79
2022/07/25 04:38:20;;;;;;;0.00;0.00;;;33.30;31.20;;;;;;5085404;28;20097;-79
2022/07/25 04:40:46;;;;;;;0.15;0.15;;;33.00;31.60;;;;;;5091550;28;20520;-77
2022/07/25 04:43:12;;;;;;;0.00;0.00;;;33.20;32.10;;;;;;5091525;28;20451;-77
2022/07/25 04:45:38;;;;;;;0.00;0.00;;;33.50;32.00;;;;;;5103678;28;20028;-76
2022/07/25 04:48:04;;;;;;;0.00;0.00;;;33.60;32.20;;;;;;5087711;28;20024;-76
2022/07/25 04:50:30;;;;;;;0.00;0.00;;;33.80;31.80;;;;;;5066756;28;20046;-76
2022/07/25 04:52:56;;;;;;;0.08;0.08;;;33.60;31.60;;;;;;5091268;28;20103;-76
2022/07/25 04:55:23;;;;;;;0.00;0.00;;;33.60;32.10;;;;;;5092349;28;20353;-77
2022/07/25 04:57:49;;;;;;;0.25;0.20;;;33.90;31.80;;;;;;5093975;28;20054;-76
2022/07/25 05:00:15;;;;;;;0.20;0.13;;;33.60;34.80;;;;;;5091323;28;20074;-76
2022/07/25 05:02:42;;;;;;;0.30;0.30;;;32.90;35.90;;;;;;5086143;28;20040;-77
2022/07/25 05:05:08;;;;;;;0.40;0.40;;;32.90;35.60;;;;;;5090937;28;20522;-78
2022/07/25 05:07:36;;;;;;;0.00;0.00;;;33.10;35.20;;;;;;5090263;28;20054;-75
2022/07/25 05:10:03;;;;;;;1.17;1.17;;;33.40;35.00;;;;;;5100941;28;20021;-76
2022/07/25 05:12:30;;;;;;;6.05;0.98;;;33.60;35.10;;;;;;5092395;28;20024;-75
2022/07/25 05:14:56;;;;;;;0.00;0.00;;;33.30;36.50;;;;;;5095119;28;20035;-73
2022/07/25 05:17:22;;;;;;;0.03;0.03;;;33.00;37.60;;;;;;5095490;28;20523;-76
2022/07/25 05:19:48;;;;;;;0.00;0.00;;;33.10;36.90;;;;;;5080738;28;20185;-75
2022/07/25 05:22:14;;;;;;;0.10;0.10;;;33.20;37.00;;;;;;5055872;28;20033;-75
2022/07/25 05:24:40;;;;;;;0.00;0.00;;;33.10;36.20;;;;;;5077658;28;20028;-77
2022/07/25 05:27:06;;;;;;;0.10;0.10;;;33.30;36.00;;;;;;5091812;28;20055;-77
2022/07/25 05:29:32;;;;;;;5.35;3.83;;;33.30;35.90;;;;;;5076479;28;20115;-79
2022/07/25 05:31:58;;;;;;;0.00;0.00;;;33.30;35.70;;;;;;5086408;28;20031;-77
2022/07/25 05:34:24;;;;;;;0.00;0.00;;;33.20;35.50;;;;;;5089695;28;20102;-77
2022/07/25 05:36:50;;;;;;;3.30;2.38;;;33.30;35.30;;;;;;5090495;28;20457;-77
2022/07/25 05:39:19;;;;;;;0.32;0.30;;;32.90;36.00;;;;;;5084052;28;20069;-77
2022/07/25 05:41:45;;;;;;;0.00;0.00;;;32.40;36.40;;;;;;5086377;28;20107;-78
2022/07/25 05:44:11;;;;;;;0.20;0.20;;;32.40;36.60;;;;;;5069150;28;20073;-78
2022/07/25 05:46:37;;;;;;;0.00;0.00;;;32.60;36.40;;;;;;5078607;28;20020;-80
2022/07/25 05:49:03;;;;;;;0.90;0.52;;;32.60;36.00;;;;;;5087079;28;20103;-80
2022/07/25 05:51:29;;;;;;;1.73;1.27;;;32.80;35.20;;;;;;5058540;28;20028;-81
2022/07/25 05:53:55;;;;;;;0.32;0.32;;;32.70;35.80;;;;;;5063002;28;20028;-78
2022/07/25 05:56:21;;;;;;;0.00;0.00;;;32.30;35.50;;;;;;5085428;28;20024;-79
2022/07/25 05:58:47;;;;;;;0.00;0.00;;;32.40;36.20;;;;;;5071884;28;20544;-80
2022/07/25 06:01:14;;;;;;;0.00;0.00;;;32.60;35.80;;;;;;5088441;28;20107;-81
2022/07/25 06:03:41;;;;;;;0.10;0.03;;;32.80;35.90;;;;;;5068831;28;20032;-80
2022/07/25 06:06:08;;;;;;;0.00;0.00;;;32.80;36.20;;;;;;5085090;28;20027;-80
2022/07/25 06:08:35;;;;;;;0.00;0.00;;;32.80;35.40;;;;;;5078287;28;20502;-80
2022/07/25 06:11:03;;;;;;;0.77;0.20;;;33.00;35.40;;;;;;5064127;28;20043;-80
2022/07/25 06:13:29;;;;;;;0.00;0.00;;;33.10;35.60;;;;;;5088279;28;20087;-81
2022/07/25 06:15:56;;;;;;;1.13;0.15;;;32.90;35.50;;;;;;5089487;28;20069;-78
2022/07/25 06:18:24;;;;;;;0.00;0.00;;;32.70;35.70;;;;;;5086871;28;20495;-80
2022/07/25 06:20:50;;;;;;;0.22;0.10;;;32.60;35.90;;;;;;5087630;28;20035;-79
2022/07/25 06:23:17;;;;;;;0.13;0.13;;;32.70;35.10;;;;;;5082832;28;20024;-80
2022/07/25 06:25:43;;;;;;;0.00;0.00;;;32.80;35.70;;;;;;5064097;28;20036;-80
2022/07/25 06:28:09;;;;;;;0.10;0.10;;;32.70;35.50;;;;;;5095584;28;20068;-80
2022/07/25 06:30:35;;;;;;;0.00;0.00;;;32.90;35.70;;;;;;5100599;28;20038;-79
2022/07/25 06:33:01;;;;;;;0.00;0.00;;;33.20;35.70;;;;;;5092841;28;20031;-80
2022/07/25 06:35:27;;;;;;;0.20;0.20;;;33.40;35.50;;;;;;5085325;28;20445;-81
2022/07/25 06:37:54;;;;;;;0.20;0.10;;;33.00;36.80;;;;;;5082434;28;20024;-80
2022/07/25 06:40:20;;;;;;;0.00;0.00;;;32.90;37.10;;;;;;5077096;28;20024;-78
2022/07/25 06:42:47;;;;;;;0.00;0.00;;;32.80;37.50;;;;;;5101476;28;20507;-78
2022/07/25 06:45:14;;;;;;;0.68;0.68;;;33.00;37.00;;;;;;5104176;28;20024;-79
2022/07/25 06:47:41;;;;;;;0.17;0.17;;;33.00;36.50;;;;;;5071812;28;20025;-79
2022/07/25 06:50:10;;;;;;;0.00;0.00;;;33.00;37.00;;;;;;5089145;28;20045;-79
2022/07/25 06:52:37;;;;;;;1.70;1.60;;;33.10;36.50;;;;;;5074367;28;20436;-79
2022/07/25 06:55:05;;;;;;;0.65;0.65;;;33.30;35.60;;;;;;5085284;28;20059;-79
2022/07/25 06:57:31;;;;;;;0.20;0.10;;;33.40;36.00;;;;;;5079684;28;20076;-79
2022/07/25 06:59:57;;;;;;;0.40;0.13;;;33.10;37.40;;;;;;5078776;28;20044;-78
2022/07/25 07:02:23;;;;;;;0.00;0.00;;;33.10;36.30;;;;;;5080424;28;20035;-76
2022/07/25 07:04:49;;;;;;;1.08;0.98;;;33.20;35.80;;;;;;5066128;28;20385;-77
2022/07/25 07:07:15;;;;;;;0.00;0.00;;;32.60;36.70;;;;;;5082390;28;20028;-76
2022/07/25 07:09:42;;;;;;;0.28;0.22;;;32.80;37.10;;;;;;5082641;28;20046;-76
2022/07/25 07:12:09;;;;;;;0.43;0.43;;;33.10;36.40;;;;;;5080420;28;20068;-77
2022/07/25 07:14:36;;;;;;;0.00;0.00;;;33.00;36.40;;;;;;5087031;28;20051;-77
2022/07/25 07:17:03;;;;;;;0.00;0.00;;;33.00;36.40;;;;;;5090009;28;20016;-78
2022/07/25 07:19:29;;;;;;;0.00;0.00;;;33.30;36.30;;;;;;5067703;28;20383;-78
2022/07/25 07:21:55;;;;;;;0.00;0.00;;;33.60;35.50;;;;;;5092093;28;20089;-78
2022/07/25 07:24:22;;;;;;;13.07;4.50;;;33.90;35.30;;;;;;5093702;28;20012;-77
2022/07/25 07:26:48;;;;;;;0.00;0.00;;;33.90;34.60;;;;;;5095336;28;20029;-77
2022/07/25 07:29:14;;;;;;;0.88;0.47;;;34.00;35.00;;;;;;5081644;28;20103;-82
2022/07/25 07:31:40;;;;;;;0.00;0.00;;;33.80;36.60;;;;;;5066844;28;20120;-78
2022/07/25 07:34:06;;;;;;;0.00;0.00;;;33.60;37.40;;;;;;5090935;28;20411;-78
2022/07/25 07:36:33;;;;;;;0.30;0.30;;;33.50;37.20;;;;;;5071235;28;20107;-77
2022/07/25 07:38:58;;;;;;;2.40;2.30;;;33.60;37.10;;;;;;5067391;28;20031;-77
2022/07/25 07:41:25;;;;;;;0.00;0.00;;;33.80;37.30;;;;;;5089349;28;20404;-77
2022/07/25 07:43:51;;;;;;;0.00;0.00;;;34.00;36.90;;;;;;5090284;28;20114;-79
2022/07/25 07:46:17;;;;;;;0.00;0.00;;;34.00;36.60;;;;;;5099611;28;20098;-81
2022/07/25 07:48:43;;;;;;;0.00;0.00;;;34.30;36.40;;;;;;5095034;28;20043;-80
2022/07/25 07:51:09;;;;;;;3.40;0.30;;;34.60;35.70;;;;;;5087211;28;20032;-79
2022/07/25 07:56:20;;;;;;;0.35;0.35;;;34.10;36.20;;;;;;5083284;28;20056;-79
2022/07/25 07:58:46;;;;;;;0.10;0.10;;;33.40;37.40;;;;;;5101102;28;20522;-81
2022/07/25 08:01:12;;;;;;;0.47;0.45;;;33.90;37.20;;;;;;5107218;28;20076;-80
2022/07/25 08:03:38;;;;;;;0.30;0.25;;;33.70;37.60;;;;;;5091059;28;20021;-79
2022/07/25 08:06:04;;;;;;;0.00;0.00;;;33.40;37.40;;;;;;5100718;28;20032;-80
2022/07/25 08:08:31;;;;;;;0.70;0.47;;;33.50;38.20;;;;;;5098998;28;20029;-79
2022/07/25 08:10:57;;;;;;;0.00;0.00;;;33.90;38.00;;;;;;5088075;28;20028;-80
2022/07/25 08:13:27;;;;;;;0.03;0.03;;;34.20;37.50;;;;;;5094219;28;20024;-78
2022/07/25 08:15:58;;;;;;;1.38;0.88;;;34.00;36.70;;;;;;5090015;28;20111;-74
2022/07/25 08:18:28;;;;;;;0.35;0.35;;;33.90;37.20;;;;;;5083736;28;20167;-76
2022/07/25 08:20:54;;;;;;;0.20;0.20;;;33.80;37.10;;;;;;5112629;28;20024;-75
2022/07/25 08:23:21;;;;;;;0.95;0.95;;;34.00;37.70;;;;;;5102432;28;20028;-76
2022/07/25 08:25:47;;;;;;;1.10;1.10;;;34.00;36.70;;;;;;5088312;28;20481;-76
2022/07/25 08:28:14;;;;;;;2.65;0.10;;;34.20;37.10;;;;;;5095349;28;20023;-74
2022/07/25 08:30:40;;;;;;;0.00;0.00;;;34.30;36.60;;;;;;5097449;28;20031;-75
2022/07/25 08:33:09;;;;;;;0.08;0.00;;;34.50;36.10;;;;;;5084478;28;20392;-76
2022/07/25 08:35:36;;;;;;;0.57;0.50;;;34.80;35.70;;;;;;5092551;28;20020;-76
2022/07/25 08:38:03;;;;;;;0.20;0.20;;;34.50;35.90;;;;;;5068540;28;20028;-76
2022/07/25 08:40:31;;;;;;;0.05;0.05;;;34.20;36.50;;;;;;5079081;28;20039;-77
2022/07/25 08:42:57;;;;;;;1.73;1.63;;;34.30;37.40;;;;;;5076695;28;20528;-75
2022/07/25 08:45:25;;;;;;;0.20;0.00;;;34.50;36.80;;;;;;5088740;28;20032;-76
2022/07/25 08:47:53;;;;;;;0.00;0.00;;;34.80;35.30;;;;;;5089173;28;20082;-75
2022/07/25 08:50:21;;;;;;;0.00;0.00;;;34.80;34.90;;;;;;5084734;28;20027;-75
2022/07/25 08:52:49;;;;;;;2.30;0.70;;;34.80;35.20;;;;;;5093266;28;20045;-76
2022/07/25 08:55:19;;;;;;;0.00;0.00;;;35.10;35.00;;;;;;5092242;28;20157;-76
2022/07/25 08:57:59;;;;;;;0.22;0.22;;;35.20;34.20;;;;;;5088439;28;20514;-76
2022/07/25 09:00:30;;;;;;;0.20;0.20;;;35.50;33.30;;;;;;5073093;28;20035;-76
2022/07/25 09:03:00;;;;;;;3.03;0.85;;;35.80;33.30;;;;;;5085956;28;20024;-75
2022/07/25 09:05:29;;;;;;;0.00;0.00;;;36.00;32.90;;;;;;5074340;28;20017;-75
2022/07/25 09:07:56;;;;;;;0.00;0.00;;;36.10;32.50;;;;;;5091360;28;20024;-72
2022/07/25 09:10:27;;;;;;;0.20;0.20;;;36.30;31.60;;;;;;5095884;28;20022;-73
2022/07/25 09:13:06;;;;;;;0.00;0.00;;;36.40;30.20;;;;;;5084219;28;20025;-74
2022/07/25 09:15:37;;;;;;;0.00;0.00;;;36.10;30.30;;;;;;5080823;28;20016;-75
2022/07/25 09:18:08;;;;;;;0.15;0.15;;;36.00;30.90;;;;;;5090830;28;20028;-75
2022/07/25 09:20:40;;;;;;;0.00;0.00;;;36.30;31.30;;;;;;5080289;28;20028;-74
2022/07/25 09:23:07;;;;;;;0.00;0.00;;;36.40;30.40;;;;;;5085139;28;20020;-74
2022/07/25 09:25:34;;;;;;;2.28;1.40;;;36.00;29.40;;;;;;5080053;28;20028;-75
2022/07/25 09:28:15;;;;;;;0.00;0.00;;;36.00;30.50;;;;;;5083765;28;20073;-76
2022/07/25 09:31:01;;;;;;;0.00;0.00;;;36.00;32.50;;;;;;5077504;28;20028;-76
2022/07/25 09:33:28;;;;;;;0.35;0.35;;;36.10;31.90;;;;;;5082081;28;20032;-75
2022/07/25 09:35:55;;;;;;;0.00;0.00;;;35.70;31.70;;;;;;5082252;28;20055;-76
2022/07/25 09:38:23;;;;;;;0.00;0.00;;;35.60;32.10;;;;;;5068830;28;20023;-74
2022/07/25 09:40:58;;;;;;;0.00;0.00;;;35.80;31.70;;;;;;5083348;28;20043;-76
2022/07/25 09:43:44;;;;;;;0.00;0.00;;;35.90;32.50;;;;;;5068666;28;20024;-75
2022/07/25 09:46:11;;;;;;;1.65;0.43;;;35.80;31.20;;;;;;5079455;28;20162;-75
2022/07/25 09:48:39;;;;;;;0.22;0.08;;;36.10;30.70;;;;;;5072736;28;20491;-76
2022/07/25 09:51:08;;;;;;;0.00;0.00;;;36.00;30.90;;;;;;5087159;28;20036;-76
2022/07/25 09:53:34;;;;;;;0.00;0.00;;;36.20;31.60;;;;;;5087976;28;20314;-75
2022/07/25 09:56:01;;;;;;;0.00;0.00;;;36.20;31.40;;;;;;5083064;28;20024;-75
2022/07/25 09:58:28;;;;;;;0.80;0.80;;;36.20;32.10;;;;;;5086730;28;20104;-74
2022/07/25 10:01:04;;;;;;;0.10;0.10;;;35.90;30.30;;;;;;5079186;28;20023;-75
2022/07/25 10:03:36;;;;;;;0.00;0.00;;;35.60;29.80;;;;;;5089839;28;20020;-76
2022/07/25 10:06:29;;;;;;;0.10;0.10;;;35.60;31.10;;;;;;5082598;28;20024;-76
2022/07/25 10:08:56;;;;;;;0.00;0.00;;;35.60;31.20;;;;;;5076165;28;20056;-77
2022/07/25 10:11:24;;;;;;;0.00;0.00;;;35.80;31.30;;;;;;5082949;28;20016;-74
2022/07/25 10:13:52;;;;;;;0.00;0.00;;;35.90;30.40;;;;;;5079975;28;20513;-73
2022/07/25 10:16:22;;;;;;;0.00;0.00;;;35.90;31.10;;;;;;5083452;28;20024;-73
2022/07/25 10:18:56;;;;;;;0.00;0.00;;;36.00;31.70;;;;;;5077307;28;20118;-72
2022/07/25 10:21:23;;;;;;;0.65;0.65;;;35.80;31.80;;;;;;5085397;28;20024;-72
2022/07/25 10:24:05;;;;;;;0.00;0.00;;;35.80;31.20;;;;;;5081686;28;20048;-73
2022/07/25 10:26:32;;;;;;;0.00;0.00;;;35.80;31.20;;;;;;5075683;28;20035;-73
2022/07/25 10:29:00;;;;;;;19.67;1.52;;;35.90;31.40;;;;;;5080437;28;20078;-73
2022/07/25 10:31:37;;;;;;;0.00;0.00;;;36.10;31.00;;;;;;5066665;28;20487;-74
2022/07/25 10:34:09;;;;;;;1.35;0.45;;;35.90;30.40;;;;;;5094048;28;20173;-74
2022/07/25 10:36:45;;;;;;;0.17;0.17;;;35.80;31.20;;;;;;5092591;28;20024;-72
2022/07/25 10:39:13;;;;;;;0.00;0.00;;;35.60;30.20;;;;;;5086393;28;20077;-72
2022/07/25 10:41:41;;;;;;;0.00;0.00;;;35.30;30.00;;;;;;5076142;28;20052;-73
2022/07/25 10:44:14;;;;;;;0.00;0.00;;;35.30;30.00;;;;;;5108567;28;20031;-71
2022/07/25 10:46:45;;;;;;;35.55;9.48;;;35.30;30.00;;;;;;5104686;28;20099;-73
2022/07/25 10:49:25;;;;;;;0.00;0.00;;;35.50;30.00;;;;;;5081625;28;20279;-74
2022/07/25 10:51:56;;;;;;;0.00;0.00;;;35.80;29.80;;;;;;5075048;28;20494;-74
2022/07/25 10:54:22;;;;;;;0.00;0.00;;;35.90;29.40;;;;;;5072306;28;20034;-74
2022/07/25 10:56:59;;;;;;;0.00;0.00;;;36.10;29.70;;;;;;5092558;28;20036;-74
2022/07/25 10:59:27;;;;;;;0.00;0.00;;;36.10;29.20;;;;;;5086186;28;20062;-75
2022/07/25 11:01:54;;;;;;;0.00;0.00;;;36.10;29.30;;;;;;5072430;28;20037;-76
2022/07/25 11:04:20;;;;;;;10.90;7.47;;;36.10;29.30;;;;;;5086322;28;20050;-75
2022/07/25 11:06:46;;;;;;;12.35;6.93;;;35.80;29.50;;;;;;5087004;28;20060;-75
2022/07/25 11:09:19;;;;;;;1.75;0.35;;;35.50;29.90;;;;;;5081010;28;20051;-75
2022/07/25 11:11:48;;;;;;;0.00;0.00;;;35.60;30.10;;;;;;5072394;28;20020;-75
2022/07/25 11:14:17;;;;;;;0.00;0.00;;;35.60;30.20;;;;;;5081280;28;20543;-74
2022/07/25 11:16:45;;;;;;;1.67;1.55;;;35.20;29.80;;;;;;5082606;28;20031;-75
2022/07/25 11:19:28;;;;;;;0.00;0.00;;;35.30;29.90;;;;;;5067710;28;20115;-75
2022/07/25 11:21:59;;;;;;;0.22;0.22;;;35.40;29.60;;;;;;5088360;28;20024;-74
2022/07/25 11:24:40;;;;;;;0.00;0.00;;;35.20;30.70;;;;;;5080464;28;20031;-76
2022/07/25 11:27:08;;;;;;;0.13;0.13;;;35.10;30.90;;;;;;5081296;28;20016;-75
2022/07/25 11:29:36;;;;;;;0.00;0.00;;;35.10;31.20;;;;;;5107320;28;20023;-73
2022/07/25 11:32:08;;;;;;;0.00;0.00;;;35.00;31.10;;;;;;5091426;28;20024;-74
2022/07/25 11:34:37;;;;;;;0.00;0.00;;;35.20;31.70;;;;;;5086652;28;20586;-74
2022/07/25 11:37:05;;;;;;;0.00;0.00;;;35.30;31.20;;;;;;5071073;28;20034;-74
2022/07/25 11:39:34;;;;;;;0.00;0.00;;;35.20;31.00;;;;;;5088609;28;20028;-75
2022/07/25 11:42:06;;;;;;;0.00;0.00;;;35.20;30.30;;;;;;5088985;28;20016;-76
2022/07/25 11:44:35;;;;;;;0.00;0.00;;;35.20;30.70;;;;;;5069469;28;20047;-75
2022/07/25 11:47:02;;;;;;;0.00;0.00;;;35.10;29.50;;;;;;5085740;28;20016;-76
2022/07/25 11:49:28;;;;;;;0.00;0.00;;;35.00;30.10;;;;;;5091675;28;20081;-76
2022/07/25 11:51:55;;;;;;;2.55;0.73;;;35.00;30.50;;;;;;5083339;28;20036;-75
2022/07/25 11:54:21;;;;;;;0.73;0.70;;;35.00;29.80;;;;;;5085288;28;20056;-74
2022/07/25 11:56:47;;;;;;;0.00;0.00;;;35.00;29.70;;;;;;5082012;28;20047;-73
2022/07/25 11:59:13;;;;;;;0.00;0.00;;;35.00;30.00;;;;;;5086361;28;20028;-73
2022/07/25 12:01:41;;;;;;;0.00;0.00;;;35.10;30.30;;;;;;5067571;28;20469;-72
2022/07/25 12:04:17;;;;;;;0.00;0.00;;;35.10;30.10;;;;;;5062308;28;20111;-71
2022/07/25 12:06:46;;;;;;;0.00;0.00;;;35.30;30.90;;;;;;5090250;28;20046;-73
2022/07/25 12:09:17;;;;;;;0.00;0.00;;;35.10;31.60;;;;;;5092696;28;20031;-73
2022/07/25 12:12:02;;;;;;;0.00;0.00;;;35.20;31.40;;;;;;5091831;28;20032;-73
2022/07/25 12:14:28;;;;;;;0.00;0.00;;;35.20;30.30;;;;;;5082506;28;20085;-73
2022/07/25 12:16:54;;;;;;;0.00;0.00;;;35.30;30.30;;;;;;5092409;28;20024;-73
2022/07/25 12:19:21;;;;;;;0.00;0.00;;;34.80;30.60;;;;;;5099792;28;20115;-73
2022/07/25 12:21:47;;;;;;;0.10;0.10;;;34.80;30.70;;;;;;5077166;28;20376;-73
2022/07/25 12:24:13;;;;;;;0.00;0.00;;;34.90;31.20;;;;;;5066252;28;20056;-74
2022/07/25 12:26:39;;;;;;;0.00;0.00;;;35.00;31.10;;;;;;5075350;28;20040;-74
2022/07/25 12:29:05;;;;;;;0.08;0.08;;;35.00;30.20;;;;;;5074812;28;20081;-72
2022/07/25 12:31:31;;;;;;;0.00;0.00;;;35.00;30.00;;;;;;5090843;28;20040;-74
2022/07/25 12:33:58;;;;;;;0.00;0.00;;;35.10;30.50;;;;;;5099822;28;20025;-73
2022/07/25 12:36:24;;;;;;;0.00;0.00;;;35.10;30.00;;;;;;5095068;28;20107;-73
2022/07/25 12:38:50;;;;;;;1.65;1.65;;;35.10;30.20;;;;;;5095041;28;20103;-73
2022/07/25 12:41:21;;;;;;;0.57;0.10;;;35.10;31.30;;;;;;5094962;28;20024;-73
2022/07/25 12:43:47;;;;;;;0.10;0.10;;;34.80;31.00;;;;;;5093594;28;20035;-73
2022/07/25 12:46:13;;;;;;;0.00;0.00;;;34.60;31.00;;;;;;5094873;28;20503;-73
2022/07/25 12:48:39;;;;;;;0.00;0.00;;;34.60;31.30;;;;;;5094801;28;20027;-73
2022/07/25 12:51:05;;;;;;;0.00;0.00;;;34.70;31.50;;;;;;5094795;28;20035;-73